createdAt,value
2017-09-25T00:00:02.000Z,18.6
2017-09-25T00:10:01.000Z,18.6
2017-09-25T00:20:01.000Z,18.6
2017-09-25T00:30:02.000Z,18.6
2017-09-25T00:40:02.000Z,18.6
2017-09-25T00:50:01.000Z,18.6
2017-09-25T01:00:01.000Z,18.6
2017-09-25T01:10:02.000Z,18.6
2017-09-25T01:20:01.000Z,18.6
2017-09-25T01:30:01.000Z,18.6
2017-09-25T01:40:02.000Z,18.6
2017-09-25T01:50:01.000Z,18.6
2017-09-25T02:00:01.000Z,18.6
2017-09-25T02:10:01.000Z,18.6
2017-09-25T02:20:02.000Z,18.6
2017-09-25T02:30:05.000Z,18.6
2017-09-25T02:40:01.000Z,18.6
2017-09-25T02:50:02.000Z,18.6
2017-09-25T03:00:01.000Z,18.5
2017-09-25T03:10:01.000Z,18.5
2017-09-25T03:20:02.000Z,18.4
2017-09-25T03:30:01.000Z,18.4
2017-09-25T03:40:01.000Z,18.4
2017-09-25T03:50:02.000Z,18.4
2017-09-25T04:00:01.000Z,18.4
2017-09-25T04:10:01.000Z,18.4
2017-09-25T04:20:01.000Z,18.3
2017-09-25T04:30:01.000Z,18.4
2017-09-25T04:40:01.000Z,18.3
2017-09-25T04:50:02.000Z,18.3
2017-09-25T05:00:01.000Z,18.3
2017-09-25T05:10:05.000Z,18.3
2017-09-25T05:20:02.000Z,18.3
2017-09-25T05:30:01.000Z,18.3
2017-09-25T05:40:01.000Z,18.2
2017-09-25T05:50:02.000Z,18.3
2017-09-25T06:00:01.000Z,18.3
2017-09-25T06:10:01.000Z,18.2
2017-09-25T06:20:02.000Z,18.3
2017-09-25T06:30:01.000Z,18.3
2017-09-25T06:40:01.000Z,18.4
2017-09-25T06:50:02.000Z,18.5
2017-09-25T07:00:01.000Z,18.5
2017-09-25T07:10:01.000Z,18.6
2017-09-25T07:20:02.000Z,18.5
2017-09-25T07:30:01.000Z,18.6
2017-09-25T07:40:01.000Z,18.6
2017-09-25T07:50:05.000Z,18.6
2017-09-25T08:00:01.000Z,18.6
2017-09-25T08:10:01.000Z,18.6
2017-09-25T08:20:01.000Z,18.6
2017-09-25T08:30:01.000Z,18.8
2017-09-25T08:40:01.000Z,18.8
2017-09-25T08:50:02.000Z,18.9
2017-09-25T09:00:01.000Z,19
2017-09-25T09:10:01.000Z,19.1
2017-09-25T09:20:02.000Z,19.1
2017-09-25T09:30:01.000Z,19.1
2017-09-25T09:40:01.000Z,19.1
2017-09-25T09:50:02.000Z,19.1
2017-09-25T10:00:01.000Z,19.1
2017-09-25T10:10:01.000Z,19.1
2017-09-25T10:20:01.000Z,19.1
2017-09-25T10:30:05.000Z,19.1
2017-09-25T10:40:01.000Z,19.1
2017-09-25T10:50:02.000Z,19.1
2017-09-25T11:00:01.000Z,19.1
2017-09-25T11:10:01.000Z,19.1
2017-09-25T11:20:02.000Z,19.1
2017-09-25T11:30:01.000Z,19.1
2017-09-25T11:40:01.000Z,19.1
2017-09-25T11:50:02.000Z,19.1
2017-09-25T12:00:01.000Z,19.1
2017-09-25T12:10:01.000Z,19.1
2017-09-25T12:20:02.000Z,19.1
2017-09-25T12:30:01.000Z,19.1
2017-09-25T12:40:01.000Z,19.1
2017-09-25T12:50:01.000Z,19.1
2017-09-25T13:00:01.000Z,19.1
2017-09-25T13:10:05.000Z,19.1
2017-09-25T13:20:02.000Z,19.1
2017-09-25T13:30:01.000Z,19.1
2017-09-25T13:40:01.000Z,19.1
2017-09-25T13:50:02.000Z,19.1
2017-09-25T14:10:01.000Z,19.1
2017-09-25T14:20:01.000Z,18.7
2017-09-25T14:30:01.000Z,19
2017-09-25T14:40:01.000Z,19.1
2017-09-25T14:50:01.000Z,18.8
2017-09-25T15:00:01.000Z,18.8
2017-09-25T15:10:01.000Z,19
2017-09-25T15:20:01.000Z,18.8
2017-09-25T15:30:01.000Z,18.7
2017-09-25T15:40:01.000Z,18.8
2017-09-25T15:50:04.000Z,19
2017-09-25T16:00:01.000Z,19.1
2017-09-25T16:10:01.000Z,19.1
2017-09-25T16:20:01.000Z,19.1
2017-09-25T16:30:01.000Z,19.1
2017-09-25T16:40:01.000Z,19.1
2017-09-25T16:50:01.000Z,19.1
2017-09-25T17:00:01.000Z,19.1
2017-09-25T17:10:01.000Z,19.1
2017-09-25T17:20:01.000Z,19.1
2017-09-25T17:30:02.000Z,19.1
2017-09-25T17:40:01.000Z,19.1
2017-09-25T17:50:01.000Z,19.1
2017-09-25T18:00:01.000Z,19.1
2017-09-25T18:10:01.000Z,19.1
2017-09-25T18:20:01.000Z,19.1
2017-09-25T18:30:05.000Z,19.1
2017-09-25T18:40:01.000Z,19.1
2017-09-25T18:50:02.000Z,19.1
2017-09-25T19:00:01.000Z,19.1
2017-09-25T19:10:01.000Z,19.1
2017-09-25T19:20:01.000Z,19.1
2017-09-25T19:30:01.000Z,19.1
2017-09-25T19:40:01.000Z,19.1
2017-09-25T19:50:01.000Z,19.1
2017-09-25T20:00:01.000Z,19.1
2017-09-25T20:10:01.000Z,19.1
2017-09-25T20:20:01.000Z,19.1
2017-09-25T20:30:02.000Z,19.1
2017-09-25T20:40:01.000Z,19.1
2017-09-25T20:50:01.000Z,19.1
2017-09-25T21:00:02.000Z,19.1
2017-09-25T21:10:05.000Z,19
2017-09-25T21:20:01.000Z,19
2017-09-25T21:30:01.000Z,18.9
2017-09-25T21:40:02.000Z,18.9
2017-09-25T21:50:01.000Z,18.8
2017-09-25T22:00:01.000Z,18.8
2017-09-25T22:10:02.000Z,18.8
2017-09-25T22:20:02.000Z,18.8
2017-09-25T22:30:01.000Z,18.7
2017-09-25T22:40:01.000Z,18.7
2017-09-25T22:50:02.000Z,18.7
2017-09-25T23:00:01.000Z,18.6
2017-09-25T23:10:01.000Z,18.6
2017-09-25T23:20:01.000Z,18.6
2017-09-25T23:30:01.000Z,18.6
2017-09-25T23:40:02.000Z,18.6
2017-09-25T23:50:05.000Z,18.6
